createdAt,value
2019-05-09T00:02:15.082Z,8.90
2019-05-09T00:04:41.372Z,8.80
2019-05-09T00:07:07.617Z,8.90
2019-05-09T00:09:33.840Z,8.80
2019-05-09T00:12:00.059Z,8.80
2019-05-09T00:14:26.399Z,8.80
2019-05-09T00:16:53.174Z,8.80
2019-05-09T00:19:19.573Z,8.80
2019-05-09T00:21:54.050Z,8.80
2019-05-09T00:24:23.762Z,8.80
2019-05-09T00:26:49.696Z,8.70
2019-05-09T00:29:17.949Z,8.60
2019-05-09T00:32:03.472Z,8.60
2019-05-09T00:34:38.059Z,8.60
2019-05-09T00:37:04.462Z,8.60
2019-05-09T00:39:30.684Z,8.60
2019-05-09T00:41:56.888Z,8.60
2019-05-09T00:44:27.777Z,8.50
2019-05-09T00:46:55.964Z,8.50
2019-05-09T00:49:24.064Z,8.60
2019-05-09T00:51:50.335Z,8.40
2019-05-09T00:54:17.667Z,8.50
2019-05-09T00:56:43.974Z,8.50
2019-05-09T00:59:10.217Z,8.50
2019-05-09T01:01:36.527Z,8.50
2019-05-09T01:04:04.374Z,8.50
2019-05-09T01:06:30.891Z,8.50
2019-05-09T01:08:57.102Z,8.40
2019-05-09T01:11:24.375Z,8.50
2019-05-09T01:13:50.811Z,8.50
2019-05-09T01:16:17.142Z,8.50
2019-05-09T01:18:43.846Z,8.50
2019-05-09T01:21:13.219Z,8.40
2019-05-09T01:23:39.345Z,8.40
2019-05-09T01:26:05.748Z,8.40
2019-05-09T01:28:33.904Z,8.30
2019-05-09T01:31:00.170Z,8.30
2019-05-09T01:33:46.550Z,8.40
2019-05-09T01:36:14.447Z,8.30
2019-05-09T01:38:43.145Z,8.30
2019-05-09T01:41:22.839Z,8.30
2019-05-09T01:43:37.416Z,8.30
2019-05-09T01:46:04.126Z,8.30
2019-05-09T01:48:30.342Z,8.30
2019-05-09T01:50:56.601Z,8.30
2019-05-09T01:53:24.907Z,8.20
2019-05-09T01:55:57.228Z,8.20
2019-05-09T01:58:25.360Z,8.20
2019-05-09T02:00:53.822Z,8.10
2019-05-09T02:03:19.712Z,8.10
2019-05-09T02:05:45.935Z,8.10
2019-05-09T02:08:14.250Z,8.00
2019-05-09T02:10:40.767Z,8.00
2019-05-09T02:13:06.972Z,8.10
2019-05-09T02:15:43.850Z,8.10
2019-05-09T02:18:13.718Z,8.20
2019-05-09T02:20:40.119Z,8.20
2019-05-09T02:23:06.361Z,8.20
2019-05-09T02:25:33.533Z,8.20
2019-05-09T02:27:59.914Z,8.20
2019-05-09T02:30:26.349Z,8.20
2019-05-09T02:32:54.658Z,8.30
2019-05-09T02:35:20.786Z,8.30
2019-05-09T02:37:49.786Z,8.30
2019-05-09T02:40:18.504Z,8.30
2019-05-09T02:42:43.574Z,8.30
2019-05-09T02:45:10.885Z,8.30
2019-05-09T02:47:38.522Z,8.30
2019-05-09T02:50:08.929Z,8.40
2019-05-09T02:52:34.461Z,8.40
2019-05-09T02:55:00.715Z,8.40
2019-05-09T02:57:29.432Z,8.40
2019-05-09T03:00:00.395Z,8.30
2019-05-09T03:02:31.423Z,8.30
2019-05-09T03:04:58.583Z,8.30
2019-05-09T03:07:43.441Z,8.30
2019-05-09T03:10:10.185Z,8.30
2019-05-09T03:12:39.680Z,8.30
2019-05-09T03:15:05.618Z,8.30
2019-05-09T03:17:31.957Z,8.30
2019-05-09T03:19:58.688Z,8.20
2019-05-09T03:22:25.275Z,8.20
2019-05-09T03:24:51.869Z,8.20
2019-05-09T03:27:20.212Z,8.30
2019-05-09T03:29:51.559Z,8.30
2019-05-09T03:32:19.425Z,8.20
2019-05-09T03:34:47.783Z,8.30
2019-05-09T03:37:14.137Z,8.20
2019-05-09T03:39:40.528Z,8.20
2019-05-09T03:42:07.906Z,8.10
2019-05-09T03:44:38.502Z,8.20
2019-05-09T03:47:09.720Z,8.20
2019-05-09T03:49:37.585Z,8.20
2019-05-09T03:52:03.961Z,8.20
2019-05-09T03:54:30.157Z,8.00
2019-05-09T03:57:03.844Z,8.00
2019-05-09T03:59:30.295Z,7.90
2019-05-09T04:01:58.783Z,7.90
2019-05-09T04:04:24.688Z,8.00
2019-05-09T04:06:50.986Z,8.00
2019-05-09T04:09:18.007Z,8.00
2019-05-09T04:11:44.398Z,8.10
2019-05-09T04:14:13.592Z,8.10
2019-05-09T04:16:39.842Z,8.10
2019-05-09T04:19:08.056Z,8.10
2019-05-09T04:21:34.297Z,8.20
2019-05-09T04:24:00.585Z,8.20
2019-05-09T04:26:31.774Z,8.30
2019-05-09T04:28:57.981Z,8.50
2019-05-09T04:31:24.282Z,8.40
2019-05-09T04:33:50.540Z,8.50
2019-05-09T04:36:18.742Z,8.60
2019-05-09T04:38:47.155Z,8.50
2019-05-09T04:41:18.371Z,8.60
2019-05-09T04:43:43.071Z,8.60
2019-05-09T04:46:13.019Z,8.50
2019-05-09T04:48:37.756Z,8.60
2019-05-09T04:51:07.616Z,8.60
2019-05-09T04:53:34.391Z,8.50
2019-05-09T04:56:07.211Z,8.50
2019-05-09T04:58:33.741Z,8.50
2019-05-09T05:01:14.153Z,8.40
2019-05-09T05:03:41.068Z,8.40
2019-05-09T05:06:07.758Z,8.40
2019-05-09T05:08:34.093Z,8.50
2019-05-09T05:11:00.346Z,8.60
2019-05-09T05:13:29.505Z,8.70
2019-05-09T05:15:54.874Z,8.90
2019-05-09T05:18:21.152Z,9.20
2019-05-09T05:20:48.151Z,9.70
2019-05-09T05:23:18.238Z,9.90
2019-05-09T05:25:44.707Z,9.90
2019-05-09T05:28:11.164Z,10.50
2019-05-09T05:30:37.561Z,11.90
2019-05-09T05:33:07.976Z,14.30
2019-05-09T05:35:37.571Z,15.90
2019-05-09T05:38:03.811Z,16.20
2019-05-09T05:40:33.201Z,16.40
2019-05-09T05:42:58.653Z,16.20
2019-05-09T05:45:28.527Z,16.40
2019-05-09T05:47:59.569Z,16.90
2019-05-09T05:50:27.908Z,17.20
2019-05-09T05:52:54.372Z,18.20
2019-05-09T05:55:20.690Z,18.70
2019-05-09T05:57:47.836Z,19.70
2019-05-09T06:00:18.039Z,20.60
2019-05-09T06:02:44.441Z,21.30
2019-05-09T06:05:10.886Z,21.90
2019-05-09T06:07:37.773Z,22.50
2019-05-09T06:10:04.562Z,22.50
2019-05-09T06:12:30.865Z,23.30
2019-05-09T06:14:58.200Z,22.20
2019-05-09T06:17:24.623Z,21.50
2019-05-09T06:19:50.864Z,22.60
2019-05-09T06:22:18.322Z,23.20
2019-05-09T06:24:44.864Z,24.00
2019-05-09T06:27:11.084Z,24.10
2019-05-09T06:29:38.633Z,24.60
2019-05-09T06:32:05.157Z,25.00
2019-05-09T06:34:31.359Z,25.60
2019-05-09T06:36:58.604Z,25.60
2019-05-09T06:39:25.063Z,25.90
2019-05-09T06:41:51.394Z,26.30
2019-05-09T06:44:28.734Z,25.90
2019-05-09T06:46:58.601Z,25.30
2019-05-09T06:49:29.303Z,24.80
2019-05-09T06:51:55.145Z,24.40
2019-05-09T06:54:21.347Z,25.10
2019-05-09T06:56:47.667Z,26.40
2019-05-09T06:59:13.938Z,26.70
2019-05-09T07:01:48.253Z,25.00
2019-05-09T07:04:33.439Z,24.30
2019-05-09T07:07:01.673Z,24.60
2019-05-09T07:12:31.386Z,24.70
2019-05-09T07:14:58.266Z,24.00
2019-05-09T07:17:24.732Z,25.60
2019-05-09T07:20:11.226Z,27.10
2019-05-09T07:22:48.275Z,25.70
2019-05-09T07:25:22.382Z,26.50
2019-05-09T07:27:48.588Z,26.50
2019-05-09T07:30:20.103Z,27.60
2019-05-09T07:32:57.977Z,27.10
2019-05-09T07:35:24.558Z,28.00
2019-05-09T07:37:50.886Z,26.70
2019-05-09T07:40:18.079Z,27.10
2019-05-09T07:42:44.617Z,27.90
2019-05-09T07:45:10.989Z,29.10
2019-05-09T07:47:38.752Z,29.80
2019-05-09T07:50:08.224Z,29.80
2019-05-09T07:52:33.788Z,31.20
2019-05-09T07:55:00.270Z,31.90
2019-05-09T07:57:28.536Z,31.40
2019-05-09T07:59:54.611Z,32.10
2019-05-09T08:02:21.133Z,31.60
2019-05-09T08:04:48.945Z,30.70
2019-05-09T08:07:17.459Z,30.20
2019-05-09T08:09:43.772Z,30.70
2019-05-09T08:12:10.105Z,28.90
2019-05-09T08:14:37.769Z,27.60
2019-05-09T08:17:04.781Z,29.40
2019-05-09T08:19:31.030Z,31.40
2019-05-09T08:21:57.646Z,31.20
2019-05-09T08:24:23.977Z,31.80
2019-05-09T08:26:50.223Z,31.70
2019-05-09T08:29:17.857Z,32.00
2019-05-09T08:31:45.666Z,31.10
2019-05-09T08:34:12.856Z,28.60
2019-05-09T08:36:39.138Z,27.30
2019-05-09T08:39:08.191Z,27.80
2019-05-09T08:41:34.573Z,29.90
2019-05-09T08:44:01.095Z,30.80
2019-05-09T08:46:28.600Z,30.00
2019-05-09T08:48:57.598Z,32.10
2019-05-09T08:51:37.145Z,33.20
2019-05-09T08:53:57.815Z,33.60
2019-05-09T08:56:24.240Z,34.30
2019-05-09T08:58:51.565Z,32.00
2019-05-09T09:01:29.693Z,30.50
2019-05-09T09:03:48.298Z,29.50
2019-05-09T09:06:14.194Z,26.80
2019-05-09T09:08:40.365Z,25.10
2019-05-09T09:11:08.654Z,24.80
2019-05-09T09:13:34.648Z,24.70
2019-05-09T09:16:14.407Z,28.50
2019-05-09T09:18:28.937Z,26.50
2019-05-09T09:20:55.106Z,24.00
2019-05-09T09:23:21.298Z,23.50
2019-05-09T09:25:48.770Z,25.60
2019-05-09T09:28:15.321Z,28.90
2019-05-09T09:30:41.557Z,28.80
2019-05-09T09:33:11.300Z,27.00
2019-05-09T09:35:38.071Z,26.00
2019-05-09T09:38:04.063Z,24.60
2019-05-09T09:40:30.263Z,25.60
2019-05-09T09:42:58.105Z,28.10
2019-05-09T09:45:24.626Z,27.80
2019-05-09T09:47:50.789Z,26.40
2019-05-09T09:50:17.719Z,27.50
2019-05-09T09:52:44.140Z,26.00
2019-05-09T09:55:10.722Z,24.80
2019-05-09T09:57:37.766Z,23.20
2019-05-09T10:00:25.771Z,24.50
2019-05-09T10:02:51.983Z,26.60
2019-05-09T10:05:18.462Z,25.10
2019-05-09T10:07:44.754Z,23.70
2019-05-09T10:10:29.918Z,22.30
2019-05-09T10:13:02.743Z,21.40
2019-05-09T10:15:38.536Z,20.20
2019-05-09T10:18:12.300Z,20.60
2019-05-09T10:20:40.381Z,23.30
2019-05-09T10:23:15.204Z,22.90
2019-05-09T10:25:34.703Z,22.80
2019-05-09T10:28:00.893Z,21.70
2019-05-09T10:30:28.863Z,20.70
2019-05-09T10:32:55.018Z,20.00
2019-05-09T10:35:21.519Z,19.40
2019-05-09T10:37:48.530Z,18.40
2019-05-09T10:40:20.700Z,18.90
2019-05-09T10:42:54.377Z,19.10
2019-05-09T10:45:22.506Z,22.00
2019-05-09T10:47:48.773Z,23.70
2019-05-09T10:50:14.955Z,23.90
2019-05-09T10:52:41.226Z,23.60
2019-05-09T10:55:09.090Z,23.30
2019-05-09T10:57:41.696Z,22.30
2019-05-09T11:00:08.679Z,20.60
2019-05-09T11:02:35.200Z,19.00
2019-05-09T11:05:01.461Z,18.20
2019-05-09T11:07:29.013Z,17.60
2019-05-09T11:09:58.553Z,17.00
2019-05-09T11:12:23.721Z,16.90
2019-05-09T11:14:49.906Z,16.80
2019-05-09T11:17:19.332Z,16.60
2019-05-09T11:19:44.285Z,16.20
2019-05-09T11:22:10.499Z,15.70
2019-05-09T11:24:45.429Z,15.30
2019-05-09T11:27:04.909Z,15.00
2019-05-09T11:29:33.366Z,14.80
2019-05-09T11:31:59.553Z,14.50
2019-05-09T11:34:26.764Z,14.80
2019-05-09T11:36:55.065Z,15.00
2019-05-09T11:39:35.488Z,15.60
2019-05-09T11:41:49.925Z,15.70
2019-05-09T11:44:18.283Z,15.60
2019-05-09T11:46:44.333Z,15.50
2019-05-09T11:49:10.499Z,15.10
2019-05-09T11:51:36.693Z,15.40
2019-05-09T11:54:02.956Z,15.80
2019-05-09T11:56:29.132Z,16.30
2019-05-09T11:58:55.340Z,17.50
2019-05-09T12:01:21.604Z,18.50
2019-05-09T12:03:54.375Z,19.50
2019-05-09T12:06:20.732Z,20.00
2019-05-09T12:08:48.350Z,20.00
2019-05-09T12:11:25.987Z,19.70
2019-05-09T12:13:52.661Z,19.70
2019-05-09T12:16:19.001Z,19.40
2019-05-09T12:18:45.328Z,19.30
2019-05-09T12:21:11.501Z,19.30
2019-05-09T12:23:37.878Z,19.10
2019-05-09T12:26:04.187Z,18.90
2019-05-09T12:28:30.390Z,18.60
2019-05-09T12:30:57.572Z,18.20
2019-05-09T12:33:23.909Z,18.00
2019-05-09T12:35:50.213Z,17.90
2019-05-09T12:38:18.116Z,17.90
2019-05-09T12:40:44.560Z,17.90
2019-05-09T12:43:10.734Z,17.90
2019-05-09T12:45:38.747Z,17.80
2019-05-09T12:48:14.665Z,18.10
2019-05-09T12:50:33.195Z,18.30
2019-05-09T12:52:59.456Z,18.30
2019-05-09T12:55:27.578Z,18.30
2019-05-09T12:57:53.826Z,18.30
2019-05-09T13:00:20.670Z,18.60
2019-05-09T13:02:46.886Z,18.60
2019-05-09T13:05:13.493Z,18.50
2019-05-09T13:07:42.313Z,18.30
2019-05-09T13:10:08.958Z,18.40
2019-05-09T13:12:38.579Z,19.20
2019-05-09T13:15:04.072Z,19.20
2019-05-09T13:17:41.289Z,19.00
2019-05-09T13:20:09.579Z,18.70
2019-05-09T13:22:35.787Z,18.60
2019-05-09T13:25:04.547Z,18.10
2019-05-09T13:27:30.745Z,18.20
2019-05-09T13:29:56.943Z,18.10
2019-05-09T13:32:23.350Z,18.20
2019-05-09T13:34:49.500Z,18.30
2019-05-09T13:37:18.583Z,18.20
2019-05-09T13:39:43.782Z,17.80
2019-05-09T13:42:10.062Z,17.70
2019-05-09T13:44:41.096Z,17.60
2019-05-09T13:47:04.405Z,18.10
2019-05-09T13:49:30.716Z,18.20
2019-05-09T13:52:01.195Z,18.10
2019-05-09T13:54:25.148Z,18.30
2019-05-09T13:56:57.574Z,18.40
2019-05-09T13:59:19.449Z,18.50
2019-05-09T14:01:47.836Z,18.80
2019-05-09T14:04:13.950Z,19.20
2019-05-09T14:06:40.144Z,19.40
2019-05-09T14:09:10.147Z,19.50
2019-05-09T14:11:35.799Z,19.40
2019-05-09T14:14:02.224Z,19.50
2019-05-09T14:16:28.971Z,19.20
2019-05-09T14:18:58.263Z,18.90
2019-05-09T14:21:24.592Z,18.70
2019-05-09T14:24:06.557Z,18.70
2019-05-09T14:26:19.187Z,18.50
2019-05-09T14:28:45.358Z,18.50
2019-05-09T14:31:11.538Z,18.40
2019-05-09T14:33:39.592Z,18.50
2019-05-09T14:36:08.073Z,18.80
2019-05-09T14:38:33.973Z,18.80
2019-05-09T14:41:01.246Z,18.20
2019-05-09T14:43:29.541Z,18.10
2019-05-09T14:45:57.447Z,18.20
2019-05-09T14:48:23.895Z,18.00
2019-05-09T14:50:50.125Z,17.50
2019-05-09T14:53:18.172Z,16.80
2019-05-09T14:55:44.728Z,15.70
2019-05-09T14:58:11.116Z,14.90
2019-05-09T15:00:38.648Z,14.50
2019-05-09T15:03:05.177Z,14.50
2019-05-09T15:05:31.339Z,14.80
2019-05-09T15:07:59.353Z,15.00
2019-05-09T15:10:25.598Z,15.30
2019-05-09T15:12:51.855Z,15.60
2019-05-09T15:15:18.639Z,15.90
2019-05-09T15:17:44.923Z,16.00
2019-05-09T15:20:11.401Z,16.00
2019-05-09T15:22:38.711Z,16.30
2019-05-09T15:25:05.464Z,16.30
2019-05-09T15:27:31.691Z,16.20
2019-05-09T15:29:58.548Z,16.20
2019-05-09T15:32:24.946Z,16.30
2019-05-09T15:34:51.143Z,16.30
2019-05-09T15:37:18.700Z,16.20
2019-05-09T15:39:45.129Z,16.10
2019-05-09T15:42:11.519Z,16.20
2019-05-09T15:44:37.761Z,16.30
2019-05-09T15:47:07.585Z,16.20
2019-05-09T15:49:33.999Z,16.20
2019-05-09T15:52:00.223Z,16.30
2019-05-09T15:54:26.381Z,16.40
2019-05-09T15:56:52.563Z,16.30
2019-05-09T15:59:18.733Z,16.30
2019-05-09T16:01:44.999Z,16.50
2019-05-09T16:04:11.207Z,16.60
2019-05-09T16:06:39.204Z,16.70
2019-05-09T16:09:09.228Z,16.70
2019-05-09T16:11:33.991Z,16.50
2019-05-09T16:14:03.017Z,16.40
2019-05-09T16:16:28.766Z,16.40
2019-05-09T16:18:55.111Z,16.30
2019-05-09T16:21:21.440Z,16.20
2019-05-09T16:23:48.659Z,16.20
2019-05-09T16:26:15.135Z,16.10
2019-05-09T16:28:41.490Z,15.90
2019-05-09T16:31:07.676Z,16.00
2019-05-09T16:33:33.970Z,15.90
2019-05-09T16:36:01.547Z,15.80
2019-05-09T16:38:41.282Z,15.70
2019-05-09T16:40:58.252Z,15.70
2019-05-09T16:43:24.560Z,15.90
2019-05-09T16:45:51.058Z,16.00
2019-05-09T16:48:18.492Z,16.10
2019-05-09T16:50:57.744Z,16.20
2019-05-09T16:53:14.095Z,16.30
2019-05-09T16:55:40.496Z,16.30
2019-05-09T16:58:08.627Z,16.20
2019-05-09T17:00:40.825Z,16.10
2019-05-09T17:03:08.124Z,16.10
2019-05-09T17:05:34.548Z,16.10
2019-05-09T17:08:00.726Z,16.00
2019-05-09T17:10:26.897Z,15.90
2019-05-09T17:12:53.066Z,15.70
2019-05-09T17:15:19.621Z,15.50
2019-05-09T17:17:47.667Z,15.40
2019-05-09T17:20:19.139Z,15.30
2019-05-09T17:23:11.598Z,15.20
2019-05-09T17:25:31.751Z,15.20
2019-05-09T17:27:59.469Z,15.10
2019-05-09T17:30:28.463Z,15.10
2019-05-09T17:33:01.192Z,15.10
2019-05-09T17:35:27.979Z,15.00
2019-05-09T17:37:55.370Z,15.00
2019-05-09T17:40:21.535Z,15.10
2019-05-09T17:42:47.709Z,15.10
2019-05-09T17:45:14.273Z,15.00
2019-05-09T17:47:40.460Z,15.00
2019-05-09T17:50:07.832Z,14.90
2019-05-09T17:52:34.174Z,14.80
2019-05-09T17:55:00.337Z,14.70
2019-05-09T17:57:27.928Z,14.60
2019-05-09T17:59:54.235Z,14.60
2019-05-09T18:02:21.447Z,14.40
2019-05-09T18:04:48.122Z,14.30
2019-05-09T18:07:14.693Z,14.20
2019-05-09T18:09:40.942Z,14.10
2019-05-09T18:12:08.310Z,14.10
2019-05-09T18:14:38.155Z,14.00
2019-05-09T18:17:04.013Z,14.00
2019-05-09T18:19:30.242Z,13.90
2019-05-09T18:21:57.852Z,13.90
2019-05-09T18:24:24.232Z,13.90
2019-05-09T18:26:50.427Z,13.90
2019-05-09T18:29:18.136Z,13.80
2019-05-09T18:31:48.247Z,13.70
2019-05-09T18:34:14.636Z,13.80
2019-05-09T18:36:40.840Z,13.70
2019-05-09T18:39:07.795Z,13.60
2019-05-09T18:41:34.274Z,13.60
2019-05-09T18:44:00.532Z,13.60
2019-05-09T18:46:28.019Z,13.50
2019-05-09T18:48:54.464Z,13.50
2019-05-09T18:51:20.644Z,13.50
2019-05-09T18:53:46.874Z,13.40
2019-05-09T18:56:13.131Z,13.40
2019-05-09T18:58:39.386Z,13.40
2019-05-09T19:01:05.540Z,13.30
2019-05-09T19:03:31.733Z,13.30
2019-05-09T19:05:57.913Z,13.30
2019-05-09T19:08:24.347Z,13.30
2019-05-09T19:10:52.191Z,13.30
2019-05-09T19:13:19.011Z,13.20
2019-05-09T19:16:13.721Z,13.20
2019-05-09T19:18:47.645Z,13.20
2019-05-09T19:21:18.942Z,13.10
2019-05-09T19:23:45.134Z,13.00
2019-05-09T19:26:29.955Z,13.00
2019-05-09T19:28:56.164Z,12.90
2019-05-09T19:31:22.448Z,12.80
2019-05-09T19:33:48.628Z,12.80
2019-05-09T19:36:14.798Z,12.80
2019-05-09T19:38:40.990Z,12.80
2019-05-09T19:41:07.157Z,12.80
2019-05-09T19:43:35.610Z,12.80
2019-05-09T19:46:01.862Z,12.80
2019-05-09T19:48:28.074Z,12.80
2019-05-09T19:50:54.367Z,12.80
2019-05-09T19:53:20.596Z,12.80
2019-05-09T19:55:46.794Z,12.80
2019-05-09T19:58:13.066Z,12.80
2019-05-09T20:00:39.231Z,12.70
2019-05-09T20:03:05.401Z,12.70
2019-05-09T20:05:31.648Z,12.60
2019-05-09T20:07:58.085Z,12.60
2019-05-09T20:10:26.401Z,12.50
2019-05-09T20:13:12.367Z,12.50
2019-05-09T20:15:38.635Z,12.50
2019-05-09T20:18:04.847Z,12.60
2019-05-09T20:20:31.105Z,12.60
2019-05-09T20:22:57.333Z,12.60
2019-05-09T20:25:23.531Z,12.60
2019-05-09T20:27:49.830Z,12.50
2019-05-09T20:30:16.289Z,12.40
2019-05-09T20:32:42.484Z,12.30
2019-05-09T20:35:09.154Z,12.30
2019-05-09T20:37:35.339Z,12.20
2019-05-09T20:40:02.909Z,12.20
2019-05-09T20:42:29.389Z,12.20
2019-05-09T20:44:55.552Z,12.20
2019-05-09T20:47:21.827Z,12.20
2019-05-09T20:49:48.254Z,12.20
2019-05-09T20:52:14.491Z,12.20
2019-05-09T20:54:40.983Z,12.10
2019-05-09T20:57:07.364Z,12.10
2019-05-09T20:59:33.626Z,12.10
2019-05-09T21:01:59.822Z,12.10
2019-05-09T21:04:26.041Z,12.10
2019-05-09T21:06:52.367Z,12.00
2019-05-09T21:09:18.570Z,12.00
2019-05-09T21:11:44.901Z,11.90
2019-05-09T21:14:11.379Z,11.90
2019-05-09T21:16:37.758Z,11.80
2019-05-09T21:19:04.126Z,11.90
2019-05-09T21:21:30.395Z,11.90
2019-05-09T21:23:56.697Z,11.80
2019-05-09T21:26:22.855Z,11.80
2019-05-09T21:28:49.066Z,11.80
2019-05-09T21:31:15.249Z,11.80
2019-05-09T21:33:41.481Z,11.70
2019-05-09T21:36:07.861Z,11.70
2019-05-09T21:38:34.160Z,11.70
2019-05-09T21:41:02.783Z,11.70
2019-05-09T21:43:32.341Z,11.60
2019-05-09T21:45:58.730Z,11.60
2019-05-09T21:48:24.997Z,11.60
2019-05-09T21:50:51.228Z,11.60
2019-05-09T21:53:17.433Z,11.60
2019-05-09T21:55:43.647Z,11.60
2019-05-09T21:58:09.862Z,11.60
2019-05-09T22:00:39.879Z,11.50
2019-05-09T22:03:06.641Z,11.50
2019-05-09T22:05:34.340Z,11.50
2019-05-09T22:08:00.547Z,11.50
2019-05-09T22:10:26.914Z,11.50
2019-05-09T22:12:53.099Z,11.50
2019-05-09T22:15:19.364Z,11.40
2019-05-09T22:17:45.537Z,11.40
2019-05-09T22:20:13.959Z,11.40
2019-05-09T22:22:40.266Z,11.40
2019-05-09T22:25:07.729Z,11.30
2019-05-09T22:27:34.872Z,11.40
2019-05-09T22:30:03.718Z,11.40
2019-05-09T22:32:30.001Z,11.30
2019-05-09T22:34:56.424Z,11.30
2019-05-09T22:37:22.576Z,11.30
2019-05-09T22:39:48.850Z,11.30
2019-05-09T22:42:15.035Z,11.30
2019-05-09T22:44:42.192Z,11.20
2019-05-09T22:47:08.387Z,11.20
2019-05-09T22:49:34.685Z,11.10
2019-05-09T22:52:00.890Z,11.10
2019-05-09T22:54:27.065Z,11.00
2019-05-09T22:56:54.369Z,11.00
2019-05-09T22:59:20.553Z,11.00
2019-05-09T23:01:46.716Z,11.00
2019-05-09T23:04:12.900Z,11.10
2019-05-09T23:06:39.088Z,11.00
2019-05-09T23:09:05.368Z,11.00
2019-05-09T23:11:31.609Z,11.00
2019-05-09T23:13:57.803Z,11.00
2019-05-09T23:16:26.278Z,10.90
2019-05-09T23:18:52.859Z,10.90
2019-05-09T23:21:19.020Z,10.90
2019-05-09T23:24:05.054Z,10.90
2019-05-09T23:26:31.211Z,10.90
2019-05-09T23:28:57.495Z,10.90
2019-05-09T23:31:25.604Z,10.90
2019-05-09T23:33:51.841Z,10.90
2019-05-09T23:36:18.009Z,11.00
2019-05-09T23:39:02.910Z,11.00
2019-05-09T23:41:29.202Z,10.90
2019-05-09T23:43:55.408Z,11.00
2019-05-09T23:46:21.861Z,10.90
2019-05-09T23:48:48.074Z,10.90
2019-05-09T23:51:14.248Z,10.90
2019-05-09T23:53:40.421Z,10.90
2019-05-09T23:56:25.240Z,10.90
2019-05-09T23:59:09.909Z,10.90
